createdAt,value
2023-11-18T00:02:07.240Z,3.30
2023-11-18T00:04:34.853Z,4.22
2023-11-18T00:07:02.402Z,3.63
2023-11-18T00:09:29.881Z,5.03
2023-11-18T00:11:58.869Z,5.40
2023-11-18T00:14:26.438Z,3.07
2023-11-18T00:16:54.275Z,3.45
2023-11-18T00:19:21.884Z,2.88
2023-11-18T00:21:50.176Z,4.73
2023-11-18T00:24:17.651Z,4.97
2023-11-18T00:26:45.182Z,4.47
2023-11-18T00:29:14.032Z,5.65
2023-11-18T00:31:41.724Z,4.00
2023-11-18T00:34:09.311Z,3.53
2023-11-18T00:36:36.821Z,2.95
2023-11-18T00:39:05.310Z,4.65
2023-11-18T00:41:32.907Z,4.82
2023-11-18T00:44:00.619Z,4.43
2023-11-18T00:46:29.681Z,4.50
2023-11-18T00:48:59.855Z,3.08
2023-11-18T00:51:27.931Z,3.88
2023-11-18T00:53:56.645Z,2.30
2023-11-18T00:56:24.264Z,3.50
2023-11-18T00:58:51.860Z,4.17
2023-11-18T01:01:19.480Z,3.88
2023-11-18T01:03:48.692Z,4.57
2023-11-18T01:06:17.223Z,4.10
2023-11-18T01:08:46.157Z,6.65
2023-11-18T01:11:19.776Z,5.63
2023-11-18T01:13:47.393Z,3.63
2023-11-18T01:16:15.821Z,5.72
2023-11-18T01:18:43.937Z,3.90
2023-11-18T01:21:13.806Z,4.78
2023-11-18T01:23:43.724Z,5.22
2023-11-18T01:26:13.415Z,2.90
2023-11-18T01:28:43.635Z,4.07
2023-11-18T01:31:11.877Z,3.20
2023-11-18T01:33:41.059Z,5.40
2023-11-18T01:36:10.464Z,5.35
2023-11-18T01:38:39.830Z,4.82
2023-11-18T01:41:08.193Z,5.87
2023-11-18T01:43:36.092Z,4.93
2023-11-18T01:46:06.776Z,4.30
2023-11-18T01:48:35.147Z,5.88
2023-11-18T01:51:05.397Z,4.57
2023-11-18T01:53:34.220Z,3.88
2023-11-18T01:56:06.219Z,3.72
2023-11-18T01:58:36.711Z,4.40
2023-11-18T02:01:08.422Z,5.18
2023-11-18T02:03:36.538Z,3.13
2023-11-18T02:06:05.753Z,3.97
2023-11-18T02:08:36.073Z,3.50
2023-11-18T02:11:16.310Z,4.25
2023-11-18T02:13:48.929Z,3.72
2023-11-18T02:16:17.332Z,3.28
2023-11-18T02:18:45.453Z,4.57
2023-11-18T02:21:15.200Z,3.20
2023-11-18T02:23:43.141Z,2.67
2023-11-18T02:26:12.048Z,1.85
2023-11-18T02:28:39.636Z,5.68
2023-11-18T02:31:16.518Z,4.28
2023-11-18T02:33:52.820Z,2.08
2023-11-18T02:36:26.144Z,4.32
2023-11-18T02:38:56.114Z,2.50
2023-11-18T02:41:26.588Z,3.80
2023-11-18T02:43:54.747Z,3.88
2023-11-18T02:46:24.397Z,3.00
2023-11-18T02:48:55.057Z,2.17
2023-11-18T02:51:23.456Z,3.83
2023-11-18T02:53:51.354Z,3.55
2023-11-18T02:56:19.835Z,4.25
2023-11-18T02:58:48.796Z,3.55
2023-11-18T03:01:16.514Z,4.15
2023-11-18T03:03:44.313Z,4.30
2023-11-18T03:06:12.449Z,3.30
2023-11-18T03:08:42.513Z,2.72
2023-11-18T03:11:10.740Z,3.40
2023-11-18T03:13:39.685Z,4.28
2023-11-18T03:16:12.471Z,4.47
2023-11-18T03:18:41.007Z,4.25
2023-11-18T03:21:13.229Z,2.72
2023-11-18T03:23:41.785Z,4.45
2023-11-18T03:26:09.809Z,4.65
2023-11-18T03:28:38.678Z,4.30
2023-11-18T03:31:06.504Z,5.32
2023-11-18T03:33:35.655Z,4.28
2023-11-18T03:36:04.265Z,6.10
2023-11-18T03:38:31.798Z,5.75
2023-11-18T03:40:59.893Z,4.78
2023-11-18T03:43:27.701Z,6.45
2023-11-18T03:45:57.523Z,6.60
2023-11-18T03:48:25.369Z,5.15
2023-11-18T03:50:54.948Z,5.43
2023-11-18T03:53:22.502Z,4.83
2023-11-18T03:55:51.883Z,5.80
2023-11-18T03:58:19.430Z,4.60
2023-11-18T04:00:46.929Z,5.93
2023-11-18T04:03:14.460Z,3.33
2023-11-18T04:05:41.957Z,5.68
2023-11-18T04:08:10.876Z,5.80
2023-11-18T04:10:38.464Z,4.97
2023-11-18T04:13:06.056Z,5.15
2023-11-18T04:15:33.648Z,3.80
2023-11-18T04:18:01.215Z,4.90
2023-11-18T04:20:28.726Z,3.67
2023-11-18T04:22:56.309Z,5.38
2023-11-18T04:25:26.371Z,6.78
2023-11-18T04:27:53.928Z,5.00
2023-11-18T04:30:21.871Z,3.75
2023-11-18T04:32:49.409Z,4.60
2023-11-18T04:35:18.208Z,5.15
2023-11-18T04:37:47.101Z,6.07
2023-11-18T04:40:14.827Z,3.60
2023-11-18T04:42:43.669Z,4.88
2023-11-18T04:45:11.536Z,4.68
2023-11-18T04:47:39.961Z,4.05
2023-11-18T04:50:09.593Z,6.00
2023-11-18T04:52:37.591Z,5.85
2023-11-18T04:55:07.101Z,4.28
2023-11-18T04:57:35.007Z,8.27
2023-11-18T05:00:11.833Z,6.33
2023-11-18T05:02:39.987Z,7.72
2023-11-18T05:05:08.142Z,5.00
2023-11-18T05:07:36.258Z,7.20
2023-11-18T05:10:05.120Z,6.05
2023-11-18T05:12:34.462Z,4.82
2023-11-18T05:15:02.344Z,5.63
2023-11-18T05:17:31.551Z,6.15
2023-11-18T05:19:59.110Z,5.68
2023-11-18T05:22:26.676Z,6.70
2023-11-18T05:24:54.211Z,4.85
2023-11-18T05:27:21.747Z,6.95
2023-11-18T05:29:55.242Z,5.70
2023-11-18T05:32:23.923Z,7.78
2023-11-18T05:34:54.819Z,6.13
2023-11-18T05:37:22.744Z,5.77
2023-11-18T05:39:54.448Z,7.85
2023-11-18T05:42:22.063Z,7.57
2023-11-18T05:44:50.270Z,6.70
2023-11-18T05:47:17.864Z,5.95
2023-11-18T05:49:45.411Z,9.50
2023-11-18T05:52:14.278Z,7.13
2023-11-18T05:54:41.786Z,7.47
2023-11-18T05:57:09.558Z,6.70
2023-11-18T05:59:37.109Z,7.85
2023-11-18T06:02:05.124Z,7.93
2023-11-18T06:04:32.953Z,9.17
2023-11-18T06:07:00.474Z,6.73
2023-11-18T06:09:29.524Z,6.63
2023-11-18T06:11:57.074Z,5.90
2023-11-18T06:14:24.621Z,8.20
2023-11-18T06:16:53.104Z,9.33
2023-11-18T06:19:21.955Z,7.28
2023-11-18T06:21:49.459Z,6.60
2023-11-18T06:24:18.257Z,10.50
2023-11-18T06:26:47.883Z,10.02
2023-11-18T06:29:16.501Z,5.43
2023-11-18T06:31:44.639Z,6.77
2023-11-18T06:34:13.868Z,8.10
2023-11-18T06:36:41.384Z,6.40
2023-11-18T06:39:09.685Z,6.83
2023-11-18T06:41:40.586Z,6.88
2023-11-18T06:44:13.714Z,5.70
2023-11-18T06:46:42.174Z,6.57
2023-11-18T06:49:12.005Z,4.63
2023-11-18T06:51:39.864Z,6.53
2023-11-18T06:54:10.283Z,6.83
2023-11-18T06:56:39.627Z,6.80
2023-11-18T06:59:09.105Z,5.67
2023-11-18T07:01:37.242Z,6.30
2023-11-18T07:04:09.616Z,6.07
2023-11-18T07:06:39.253Z,8.57
2023-11-18T07:09:13.537Z,8.00
2023-11-18T07:11:41.925Z,5.70
2023-11-18T07:14:11.157Z,7.10
2023-11-18T07:16:40.365Z,7.30
2023-11-18T07:19:08.215Z,8.75
2023-11-18T07:21:35.938Z,9.47
2023-11-18T07:24:04.299Z,9.63
2023-11-18T07:26:31.809Z,6.18
2023-11-18T07:28:59.326Z,5.63
2023-11-18T07:31:28.247Z,6.13
2023-11-18T07:33:55.774Z,6.40
2023-11-18T07:36:22.346Z,7.10
2023-11-18T07:38:51.245Z,10.83
2023-11-18T07:41:25.464Z,6.70
2023-11-18T07:43:53.828Z,5.90
2023-11-18T07:46:23.281Z,6.70
2023-11-18T07:48:52.912Z,6.50
2023-11-18T07:51:22.428Z,6.67
2023-11-18T07:53:50.058Z,6.63
2023-11-18T07:56:18.488Z,4.77
2023-11-18T07:58:47.654Z,7.50
2023-11-18T08:01:17.268Z,6.23
2023-11-18T08:03:45.340Z,4.80
2023-11-18T08:06:14.264Z,5.47
2023-11-18T08:08:42.047Z,4.75
2023-11-18T08:11:12.853Z,4.35
2023-11-18T08:13:40.680Z,5.03
2023-11-18T08:16:09.633Z,6.40
2023-11-18T08:18:37.735Z,9.13
2023-11-18T08:21:08.211Z,9.67
2023-11-18T08:23:38.182Z,9.07
2023-11-18T08:26:07.130Z,6.67
2023-11-18T08:28:35.274Z,6.50
2023-11-18T08:31:03.006Z,5.90
2023-11-18T08:33:31.605Z,5.90
2023-11-18T08:35:59.195Z,7.80
2023-11-18T08:38:29.137Z,9.93
2023-11-18T08:40:58.123Z,8.93
2023-11-18T08:43:26.462Z,8.13
2023-11-18T08:45:54.144Z,8.90
2023-11-18T08:48:23.954Z,7.57
2023-11-18T08:50:52.653Z,8.30
2023-11-18T08:53:24.616Z,6.03
2023-11-18T08:55:54.996Z,8.00
2023-11-18T08:58:28.194Z,7.00
2023-11-18T09:00:59.035Z,7.20
2023-11-18T09:03:28.683Z,7.77
2023-11-18T09:06:05.050Z,6.77
2023-11-18T09:08:36.137Z,7.90
2023-11-18T09:11:06.117Z,5.87
2023-11-18T09:13:36.830Z,9.10
2023-11-18T09:16:09.409Z,7.77
2023-11-18T09:18:41.452Z,7.37
2023-11-18T09:21:15.395Z,10.60
2023-11-18T09:23:44.411Z,7.77
2023-11-18T09:26:12.119Z,7.77
2023-11-18T09:28:41.327Z,6.40
2023-11-18T09:31:12.570Z,7.83
2023-11-18T09:33:45.915Z,6.70
2023-11-18T09:36:18.535Z,7.60
2023-11-18T09:38:49.106Z,8.47
2023-11-18T09:41:17.888Z,6.90
2023-11-18T09:43:49.024Z,7.43
2023-11-18T09:46:19.943Z,6.40
2023-11-18T09:48:53.547Z,6.90
2023-11-18T09:51:23.874Z,8.90
2023-11-18T09:53:53.539Z,6.90
2023-11-18T09:56:38.748Z,8.17
2023-11-18T09:59:31.099Z,6.30
2023-11-18T10:02:00.170Z,6.70
2023-11-18T10:04:28.701Z,5.97
2023-11-18T10:06:57.618Z,10.90
2023-11-18T10:09:29.451Z,6.90
2023-11-18T10:12:01.649Z,8.13
2023-11-18T10:14:30.784Z,11.43
2023-11-18T10:16:58.714Z,9.57
2023-11-18T10:19:27.083Z,6.40
2023-11-18T10:21:57.833Z,9.17
2023-11-18T10:24:26.191Z,9.90
2023-11-18T10:26:58.191Z,7.40
2023-11-18T10:29:29.083Z,8.87
2023-11-18T10:32:11.148Z,8.30
2023-11-18T10:34:39.636Z,7.40
2023-11-18T10:37:07.803Z,9.40
2023-11-18T10:39:36.787Z,9.87
2023-11-18T10:42:06.133Z,10.47
2023-11-18T10:44:33.669Z,7.40
2023-11-18T10:47:01.400Z,10.57
2023-11-18T10:49:37.791Z,11.60
2023-11-18T10:52:09.665Z,8.27
2023-11-18T10:54:38.612Z,10.50
2023-11-18T10:57:10.257Z,11.00
2023-11-18T10:59:38.830Z,9.93
2023-11-18T11:02:25.198Z,7.60
2023-11-18T11:04:54.354Z,9.37
2023-11-18T11:07:24.803Z,13.20
2023-11-18T11:09:57.530Z,9.53
2023-11-18T11:12:27.735Z,12.00
2023-11-18T11:15:01.696Z,10.30
2023-11-18T11:17:32.102Z,8.87
2023-11-18T11:20:19.179Z,8.47
2023-11-18T11:22:59.120Z,9.10
2023-11-18T11:25:33.144Z,9.00
2023-11-18T11:28:11.430Z,13.30
2023-11-18T11:30:45.224Z,10.73
2023-11-18T11:33:20.393Z,10.47
2023-11-18T11:35:56.833Z,12.30
2023-11-18T11:38:25.563Z,10.10
2023-11-18T11:40:54.037Z,11.20
2023-11-18T11:43:23.039Z,9.30
2023-11-18T11:45:52.879Z,11.57
2023-11-18T11:48:27.522Z,12.83
2023-11-18T11:51:27.354Z,11.53
2023-11-18T11:54:01.447Z,10.83
2023-11-18T11:56:42.341Z,8.80
2023-11-18T11:59:12.415Z,9.80
2023-11-18T12:01:41.386Z,8.63
2023-11-18T12:04:12.092Z,8.37
2023-11-18T12:06:45.306Z,8.40
2023-11-18T12:09:20.367Z,8.40
2023-11-18T12:11:49.910Z,9.60
2023-11-18T12:14:39.020Z,8.10
2023-11-18T12:17:11.150Z,8.77
2023-11-18T12:19:47.422Z,9.37
2023-11-18T12:22:25.195Z,8.00
2023-11-18T12:25:33.720Z,8.97
2023-11-18T12:28:09.414Z,9.10
2023-11-18T12:30:44.742Z,6.90
2023-11-18T12:33:19.476Z,7.87
2023-11-18T12:36:29.042Z,8.80
2023-11-18T12:39:26.480Z,8.50
2023-11-18T12:42:07.950Z,10.07
2023-11-18T12:44:40.980Z,5.77
2023-11-18T12:47:15.995Z,8.73
2023-11-18T12:49:44.320Z,8.30
2023-11-18T12:52:15.830Z,7.90
2023-11-18T12:54:44.699Z,5.80
2023-11-18T12:57:15.222Z,5.83
2023-11-18T12:59:44.020Z,6.33
2023-11-18T13:02:14.652Z,6.43
2023-11-18T13:04:42.437Z,7.63
2023-11-18T13:07:12.456Z,5.93
2023-11-18T13:09:42.035Z,7.10
2023-11-18T13:12:10.109Z,7.33
2023-11-18T13:14:40.582Z,7.47
2023-11-18T13:17:16.828Z,8.10
2023-11-18T13:19:46.237Z,7.00
2023-11-18T13:22:15.586Z,6.80
2023-11-18T13:24:45.106Z,7.90
2023-11-18T13:27:17.133Z,5.77
2023-11-18T13:29:50.039Z,7.50
2023-11-18T13:32:17.976Z,6.87
2023-11-18T13:34:45.645Z,6.80
2023-11-18T13:37:17.856Z,6.23
2023-11-18T13:39:48.220Z,5.20
2023-11-18T13:42:23.891Z,6.47
2023-11-18T13:44:54.385Z,6.27
2023-11-18T13:47:23.932Z,6.20
2023-11-18T13:49:53.442Z,5.30
2023-11-18T13:52:22.043Z,4.00
2023-11-18T13:54:54.520Z,4.67
2023-11-18T13:57:23.099Z,4.50
2023-11-18T13:59:52.824Z,3.90
2023-11-18T14:02:22.409Z,4.30
2023-11-18T14:04:52.270Z,4.60
2023-11-18T14:07:19.963Z,5.07
2023-11-18T14:09:47.598Z,4.50
2023-11-18T14:12:15.980Z,3.97
2023-11-18T14:14:43.572Z,4.27
2023-11-18T14:17:12.551Z,4.63
2023-11-18T14:19:42.572Z,3.90
2023-11-18T14:22:10.700Z,4.23
2023-11-18T14:24:39.257Z,4.23
2023-11-18T14:27:08.837Z,3.60
2023-11-18T14:29:37.481Z,5.00
2023-11-18T14:32:07.163Z,3.80
2023-11-18T14:34:36.090Z,4.90
2023-11-18T14:37:04.755Z,4.43
2023-11-18T14:39:33.598Z,4.47
2023-11-18T14:42:01.172Z,3.17
2023-11-18T14:44:28.782Z,4.57
2023-11-18T14:46:56.817Z,2.73
2023-11-18T14:49:24.960Z,3.20
2023-11-18T14:51:54.033Z,2.80
2023-11-18T14:54:21.559Z,3.27
2023-11-18T14:56:50.097Z,3.20
2023-11-18T14:59:17.830Z,3.30
2023-11-18T15:01:45.595Z,3.07
2023-11-18T15:04:13.273Z,4.73
2023-11-18T15:06:41.989Z,2.80
2023-11-18T15:09:12.001Z,3.00
2023-11-18T15:11:39.696Z,1.80
2023-11-18T15:14:08.818Z,2.90
2023-11-18T15:16:36.559Z,2.43
2023-11-18T15:19:04.588Z,1.93
2023-11-18T15:21:32.224Z,2.30
2023-11-18T15:24:02.036Z,2.73
2023-11-18T15:26:32.496Z,2.27
2023-11-18T15:29:02.687Z,2.60
2023-11-18T15:31:30.620Z,1.73
2023-11-18T15:33:58.987Z,1.47
2023-11-18T15:36:26.615Z,1.97
2023-11-18T15:38:54.225Z,1.83
2023-11-18T15:41:23.215Z,2.00
2023-11-18T15:43:53.526Z,1.67
2023-11-18T15:46:21.069Z,2.23
2023-11-18T15:48:48.708Z,1.53
2023-11-18T15:51:17.153Z,1.73
2023-11-18T15:53:45.034Z,1.73
2023-11-18T15:56:12.811Z,1.87
2023-11-18T15:58:40.569Z,2.00
2023-11-18T16:01:10.938Z,3.20
2023-11-18T16:03:38.703Z,1.97
2023-11-18T16:06:07.085Z,1.30
2023-11-18T16:08:35.697Z,1.90
2023-11-18T16:11:03.798Z,1.40
2023-11-18T16:13:31.429Z,1.40
2023-11-18T16:15:59.025Z,1.77
2023-11-18T16:18:27.933Z,2.00
2023-11-18T16:20:59.201Z,2.33
2023-11-18T16:23:30.980Z,1.43
2023-11-18T16:25:58.988Z,1.93
2023-11-18T16:28:28.318Z,1.60
2023-11-18T16:30:56.894Z,1.27
2023-11-18T16:33:25.487Z,2.07
2023-11-18T16:35:54.546Z,1.80
2023-11-18T16:38:22.232Z,1.87
2023-11-18T16:40:50.003Z,2.60
2023-11-18T16:43:17.604Z,2.00
2023-11-18T16:45:45.467Z,2.20
2023-11-18T16:48:13.130Z,1.70
2023-11-18T16:50:41.200Z,2.00
2023-11-18T16:53:12.127Z,1.60
2023-11-18T16:55:39.751Z,2.30
2023-11-18T16:58:08.079Z,1.70
2023-11-18T17:00:35.645Z,1.33
2023-11-18T17:03:05.073Z,1.30
2023-11-18T17:05:33.334Z,2.00
2023-11-18T17:08:02.248Z,1.70
2023-11-18T17:10:31.649Z,1.37
2023-11-18T17:13:01.267Z,1.10
2023-11-18T17:15:29.873Z,2.00
2023-11-18T17:18:02.812Z,2.17
2023-11-18T17:20:31.762Z,1.07
2023-11-18T17:22:59.694Z,2.40
2023-11-18T17:25:27.485Z,1.37
2023-11-18T17:27:57.047Z,1.23
2023-11-18T17:30:24.580Z,1.20
2023-11-18T17:32:54.110Z,1.10
2023-11-18T17:35:22.916Z,1.10
2023-11-18T17:37:51.076Z,2.00
2023-11-18T17:40:22.314Z,1.10
2023-11-18T17:42:54.199Z,1.00
2023-11-18T17:45:25.138Z,1.13
2023-11-18T17:47:53.018Z,1.23
2023-11-18T17:50:20.675Z,0.90
2023-11-18T17:52:48.733Z,1.60
2023-11-18T17:55:16.876Z,1.23
2023-11-18T17:57:45.826Z,1.37
2023-11-18T18:00:20.471Z,1.33
2023-11-18T18:02:50.085Z,0.90
2023-11-18T18:05:18.127Z,1.27
2023-11-18T18:07:45.835Z,1.00
2023-11-18T18:10:13.692Z,1.07
2023-11-18T18:12:44.092Z,1.37
2023-11-18T18:15:13.961Z,1.53
2023-11-18T18:17:41.857Z,1.60
2023-11-18T18:20:11.514Z,1.40
2023-11-18T18:22:38.626Z,1.40
2023-11-18T18:25:07.187Z,1.63
2023-11-18T18:27:35.252Z,1.60
2023-11-18T18:30:03.223Z,1.43
2023-11-18T18:32:31.221Z,1.30
2023-11-18T18:34:59.593Z,1.10
2023-11-18T18:37:28.792Z,1.10
2023-11-18T18:39:57.072Z,1.47
2023-11-18T18:42:25.362Z,1.33
2023-11-18T18:44:55.302Z,1.00
2023-11-18T18:47:25.297Z,1.60
2023-11-18T18:49:54.431Z,2.00
2023-11-18T18:52:21.993Z,1.30
2023-11-18T18:54:50.970Z,1.13
2023-11-18T18:57:18.897Z,1.03
2023-11-18T18:59:46.962Z,1.17
2023-11-18T19:02:15.421Z,1.37
2023-11-18T19:04:43.392Z,1.10
2023-11-18T19:07:11.276Z,1.03
2023-11-18T19:09:38.867Z,0.80
2023-11-18T19:12:09.188Z,2.23
2023-11-18T19:14:36.969Z,1.60
2023-11-18T19:17:05.260Z,1.80
2023-11-18T19:19:33.270Z,1.70
2023-11-18T19:22:01.832Z,1.40
2023-11-18T19:24:31.632Z,2.00
2023-11-18T19:26:59.228Z,2.07
2023-11-18T19:29:28.275Z,1.80
2023-11-18T19:31:56.015Z,2.20
2023-11-18T19:34:23.626Z,1.43
2023-11-18T19:36:51.413Z,0.97
2023-11-18T19:39:20.584Z,1.60
2023-11-18T19:41:48.376Z,1.93
2023-11-18T19:44:17.183Z,1.50
2023-11-18T19:46:50.818Z,2.13
2023-11-18T19:49:18.671Z,1.47
2023-11-18T19:51:46.662Z,2.30
2023-11-18T19:54:14.274Z,2.93
2023-11-18T19:56:41.869Z,2.17
2023-11-18T19:59:09.598Z,1.43
2023-11-18T20:01:38.136Z,2.10
2023-11-18T20:04:07.404Z,2.20
2023-11-18T20:06:35.407Z,2.57
2023-11-18T20:09:03.955Z,1.50
2023-11-18T20:11:32.265Z,2.00
2023-11-18T20:14:00.857Z,2.37
2023-11-18T20:16:29.665Z,2.80
2023-11-18T20:18:57.351Z,2.63
2023-11-18T20:21:26.229Z,2.17
2023-11-18T20:23:53.840Z,1.60
2023-11-18T20:26:22.408Z,2.90
2023-11-18T20:28:50.087Z,3.17
2023-11-18T20:31:17.825Z,2.50
2023-11-18T20:33:45.387Z,2.27
2023-11-18T20:36:12.909Z,2.63
2023-11-18T20:38:41.867Z,2.60
2023-11-18T20:41:09.530Z,2.40
2023-11-18T20:43:37.334Z,2.67
2023-11-18T20:46:06.362Z,2.30
2023-11-18T20:48:33.977Z,2.63
2023-11-18T20:51:01.502Z,4.03
2023-11-18T20:53:29.105Z,2.50
2023-11-18T20:55:58.205Z,3.43
2023-11-18T20:58:26.798Z,4.33
2023-11-18T21:00:54.430Z,3.43
2023-11-18T21:03:22.831Z,3.33
2023-11-18T21:05:51.088Z,3.23
2023-11-18T21:08:19.135Z,3.00
2023-11-18T21:10:47.944Z,3.90
2023-11-18T21:13:17.703Z,3.80
2023-11-18T21:15:45.246Z,3.57
2023-11-18T21:18:13.665Z,3.23
2023-11-18T21:20:41.346Z,3.80
2023-11-18T21:23:09.241Z,3.10
2023-11-18T21:25:36.886Z,3.73
2023-11-18T21:28:05.520Z,3.50
2023-11-18T21:30:34.788Z,2.90
2023-11-18T21:33:05.192Z,3.17
2023-11-18T21:35:33.199Z,3.43
2023-11-18T21:38:01.015Z,3.13
2023-11-18T21:40:30.155Z,4.40
2023-11-18T21:42:58.815Z,4.20
2023-11-18T21:45:28.810Z,4.17
2023-11-18T21:48:00.795Z,3.00
2023-11-18T21:50:29.215Z,2.97
2023-11-18T21:52:56.883Z,3.93
2023-11-18T21:55:24.847Z,3.90
2023-11-18T21:57:52.518Z,5.50
2023-11-18T22:00:20.683Z,3.33
2023-11-18T22:02:49.251Z,5.23
2023-11-18T22:05:19.068Z,2.53
2023-11-18T22:07:47.429Z,3.60
2023-11-18T22:10:16.648Z,3.00
2023-11-18T22:12:44.229Z,3.50
2023-11-18T22:15:15.965Z,3.93
2023-11-18T22:17:44.299Z,2.70
2023-11-18T22:20:14.410Z,4.33
2023-11-18T22:22:43.954Z,3.00
2023-11-18T22:25:13.989Z,3.00
2023-11-18T22:27:41.898Z,3.63
2023-11-18T22:30:12.839Z,3.80
2023-11-18T22:32:41.480Z,3.00
2023-11-18T22:35:10.459Z,3.00
2023-11-18T22:37:38.133Z,2.43
2023-11-18T22:40:16.507Z,3.93
2023-11-18T22:42:45.757Z,3.60
2023-11-18T22:45:17.221Z,3.47
2023-11-18T22:47:45.801Z,4.00
2023-11-18T22:50:14.609Z,4.30
2023-11-18T22:52:42.383Z,3.73
2023-11-18T22:57:42.793Z,3.70
2023-11-18T23:00:15.862Z,3.20
2023-11-18T23:02:43.706Z,3.23
2023-11-18T23:05:15.165Z,3.20
2023-11-18T23:07:45.477Z,3.70
2023-11-18T23:10:16.359Z,3.87
2023-11-18T23:12:44.249Z,2.93
2023-11-18T23:15:12.396Z,2.77
2023-11-18T23:17:40.030Z,4.03
2023-11-18T23:20:12.390Z,3.37
2023-11-18T23:22:40.328Z,3.73
2023-11-18T23:25:08.742Z,3.00
2023-11-18T23:27:37.822Z,3.60
2023-11-18T23:30:08.106Z,3.67
2023-11-18T23:32:35.730Z,4.37
2023-11-18T23:35:06.714Z,4.03
2023-11-18T23:37:34.309Z,4.67
2023-11-18T23:40:03.750Z,4.77
2023-11-18T23:42:32.958Z,3.40
2023-11-18T23:45:05.497Z,3.63
2023-11-18T23:47:33.072Z,3.20
2023-11-18T23:50:00.600Z,3.63
2023-11-18T23:52:28.237Z,3.53
2023-11-18T23:54:55.773Z,3.70
2023-11-18T23:57:23.527Z,3.30
2023-11-18T23:59:51.161Z,4.33
